Mermaid Express — H9PV — position and weather

sailwx.info

Track history (hours):
 
Tides and Currents Weather Stations Pressure Air Temp Water Temp Dewpoint Dewpoint Depression Visibility Wind Speed Wind Dir Waves Ship Positions

Mermaid Express

Last reported at 2016-Dec-30 22:26 UTC. Time now 2017-Jan-22 20:21 UTC.
Position N 37°31' W 123°09'.
Warning: this ship's position is 22 days out of date.

Length 179 m; draft 10.6 m.

Type: Tanker. MMSI: 352866000.

Date/timePositionNaut miles runAvg speedWind from/ knotsBaromVisibWave heightAir tempDewpointWater temp
2016-Dec-30 22:26N 37°31' W 123°09'1112.6
2016-Dec-30 21:33N 37°37' W 122°57'1312.9
2016-Dec-30 20:33N 37°44' W 122°44'1110.7
2016-Dec-30 19:33N 37°48' W 122°31'7 7.4
2016-Dec-30 18:33N 37°55' W 122°27'8 8.2
2016-Dec-30 17:33N 38°02' W 122°22'5 5.0
2016-Dec-30 16:33N 38°03' W 122°16'0 0.0
2016-Dec-30 15:31N 38°03' W 122°16'0 0.0
2016-Dec-30 14:31N 38°03' W 122°16'0 0.0
2016-Dec-30 11:13N 38°03' W 122°16'0 0.0
2016-Dec-30 10:31N 38°03' W 122°16'0 0.0
2016-Dec-30 09:31N 38°03' W 122°16'0 0.0
2016-Dec-30 08:25N 38°03' W 122°16'0 0.0
2016-Dec-30 07:31N 38°03' W 122°16'0 0.0
2016-Dec-30 05:31N 38°03' W 122°16'0 0.0
2016-Dec-30 04:31N 38°03' W 122°16'0 0.0
2016-Dec-30 03:13N 38°03' W 122°16'0 0.0
2016-Dec-30 00:31N 38°03' W 122°16'0 0.0
2016-Dec-29 18:31N 38°03' W 122°16'0 0.0
2016-Dec-29 17:31N 38°03' W 122°16'0 0.0
2016-Dec-29 16:25N 38°03' W 122°16'0 0.0
2016-Dec-29 15:25N 38°03' W 122°16'0 0.0
2016-Dec-29 14:31N 38°03' W 122°16'0 0.0
2016-Dec-29 13:31N 38°03' W 122°16'0 0.0
2016-Dec-29 12:07N 38°03' W 122°16'0 0.0
2016-Dec-29 11:25N 38°03' W 122°16'0 0.0
2016-Dec-29 10:31N 38°03' W 122°16'0 0.0
2016-Dec-29 09:31N 38°03' W 122°16'0 0.0
2016-Dec-29 08:25N 38°03' W 122°16'0 0.0
2016-Dec-29 07:25N 38°03' W 122°16'0 0.0
2016-Dec-29 00:19N 38°03' W 122°16'0 0.0
2016-Dec-28 19:31N 38°03' W 122°16'0 0.0
2016-Dec-28 18:31N 38°03' W 122°16'0 0.0
2016-Dec-28 17:31N 38°03' W 122°16'0 0.0
2016-Dec-28 16:31N 38°03' W 122°16'0 0.0
2016-Dec-28 15:31N 38°03' W 122°16'0 0.0
2016-Dec-28 14:31N 38°03' W 122°16'0 0.0
2016-Dec-28 13:25N 38°03' W 122°16'0 0.0
2016-Dec-28 12:31N 38°03' W 122°16'0 0.0
2016-Dec-28 11:19N 38°03' W 122°16'0 0.0
2016-Dec-28 10:25N 38°03' W 122°16'0 0.0
2016-Dec-28 08:25N 38°03' W 122°16'0 0.0
2016-Dec-28 04:31N 38°03' W 122°16'0 0.0
2016-Dec-28 03:13N 38°03' W 122°16'0 0.0
2016-Dec-28 02:31N 38°03' W 122°16'0 0.0
2016-Dec-28 00:31N 38°03' W 122°16'0 0.0
2016-Dec-27 23:13N 38°03' W 122°16'0 0.0
2016-Dec-27 20:13N 38°03' W 122°16'0 0.0
2016-Dec-27 19:31N 38°03' W 122°16'0 0.0
2016-Dec-27 18:19N 38°03' W 122°16'0 0.0
2016-Dec-27 17:31N 38°03' W 122°16'0 0.1
2016-Dec-27 16:33N 38°03' W 122°16'9 8.7
2016-Dec-27 15:33N 37°59' W 122°25'1111.3
2016-Dec-27 14:33N 37°48' W 122°23'5 4.5
2016-Dec-27 13:32N 37°44' W 122°20'0 0.1
2016-Dec-27 12:32N 37°44' W 122°20'0 0.1
2016-Dec-27 11:32N 37°44' W 122°20'0 0.0
2016-Dec-27 10:32N 37°44' W 122°20'0 0.0
2016-Dec-27 09:32N 37°44' W 122°20'0 0.1
2016-Dec-27 08:32N 37°44' W 122°20'0 0.1
2016-Dec-27 07:32N 37°44' W 122°20'0 0.1
2016-Dec-27 06:32N 37°44' W 122°20'0 0.0
2016-Dec-27 05:32N 37°44' W 122°20'0 0.0
2016-Dec-27 04:32N 37°44' W 122°20'0 0.0
2016-Dec-27 03:32N 37°44' W 122°20'0 0.0
2016-Dec-27 02:32N 37°44' W 122°20'0 0.1
2016-Dec-27 01:32N 37°44' W 122°20'0 0.1
2016-Dec-27 00:32N 37°44' W 122°20'0 0.0
2016-Dec-26 23:32N 37°44' W 122°20'0 0.0
2016-Dec-26 22:32N 37°44' W 122°20'0 0.0
2016-Dec-26 21:32N 37°44' W 122°20'0 0.0
2016-Dec-26 20:32N 37°44' W 122°20'0 0.1
2016-Dec-26 19:32N 37°44' W 122°20'0 0.1
2016-Dec-26 18:32N 37°44' W 122°20'0 0.2
2016-Dec-26 17:32N 37°44' W 122°20'0 0.1
2016-Dec-26 16:32N 37°44' W 122°20'0 0.0
2016-Dec-26 15:32N 37°44' W 122°20'0 0.0
2016-Dec-26 14:32N 37°44' W 122°20'0 0.0
2016-Dec-26 13:32N 37°44' W 122°20'0 0.1
2016-Dec-26 12:32N 37°44' W 122°20'0 0.1
2016-Dec-26 11:32N 37°44' W 122°20'0 0.0
2016-Dec-26 10:32N 37°44' W 122°20'0 0.0
2016-Dec-26 09:32N 37°44' W 122°20'0 0.0
2016-Dec-26 08:32N 37°44' W 122°20'0 0.1
2016-Dec-26 07:32N 37°44' W 122°20'0 0.1
2016-Dec-26 06:32N 37°44' W 122°20'0 0.0
2016-Dec-26 05:32N 37°44' W 122°20'0 0.0
2016-Dec-26 04:32N 37°44' W 122°20'0 0.0
2016-Dec-26 03:32N 37°44' W 122°20'0 0.0
2016-Dec-26 02:32N 37°44' W 122°20'0 0.0
2016-Dec-26 01:32N 37°44' W 122°20'0 0.1
2016-Dec-26 00:32N 37°44' W 122°20'0 0.1
2016-Dec-25 23:32N 37°44' W 122°20'0 0.0
2016-Dec-25 22:32N 37°44' W 122°20'0 0.0
2016-Dec-25 21:32N 37°44' W 122°20'0 0.0
2016-Dec-25 20:32N 37°44' W 122°20'0 0.0
2016-Dec-25 19:32N 37°44' W 122°20'0 0.0
2016-Dec-25 18:32N 37°44' W 122°20'0 0.1
2016-Dec-25 17:32N 37°44' W 122°20'0 0.1
2016-Dec-25 16:32N 37°44' W 122°20'0 0.0
2016-Dec-25 15:32N 37°44' W 122°20'0 0.0
2016-Dec-25 14:32N 37°44' W 122°20'0 0.0
2016-Dec-25 13:32N 37°44' W 122°20'0 0.1
2016-Dec-25 12:32N 37°44' W 122°20'0 0.2
2016-Dec-25 11:32N 37°44' W 122°20'0 0.0
2016-Dec-25 10:32N 37°44' W 122°20'0 0.0
2016-Dec-25 09:32N 37°44' W 122°20'0 0.0
2016-Dec-25 08:32N 37°44' W 122°20'0 0.0
2016-Dec-25 07:32N 37°44' W 122°20'0 0.1
2016-Dec-25 06:32N 37°44' W 122°20'0 0.0
2016-Dec-25 05:32N 37°44' W 122°20'0 0.0
2016-Dec-25 04:32N 37°44' W 122°20'0 0.1
2016-Dec-25 03:32N 37°44' W 122°20'0 0.0
2016-Dec-25 02:32N 37°44' W 122°20'0 0.0
2016-Dec-25 01:32N 37°44' W 122°20'0 0.0
2016-Dec-25 00:32N 37°44' W 122°20'0 0.1
2016-Dec-24 23:32N 37°44' W 122°20'0 0.1
2016-Dec-24 22:32N 37°44' W 122°20'0 0.0
2016-Dec-24 21:32N 37°44' W 122°20'0 0.0
2016-Dec-24 20:32N 37°44' W 122°20'0 0.0
2016-Dec-24 19:32N 37°44' W 122°20'0 0.1
2016-Dec-24 18:32N 37°44' W 122°20'0 0.2
2016-Dec-24 17:32N 37°44' W 122°20'0 0.0
2016-Dec-24 16:32N 37°44' W 122°20'0 0.1
2016-Dec-24 15:32N 37°44' W 122°20'0 0.0
2016-Dec-24 14:32N 37°44' W 122°20'0 0.0
2016-Dec-24 13:32N 37°44' W 122°20'0 0.0
2016-Dec-24 12:32N 37°44' W 122°20'0 0.0
2016-Dec-24 11:32N 37°44' W 122°20'0 0.0
2016-Dec-24 10:32N 37°44' W 122°20'0 0.0
2016-Dec-24 09:32N 37°44' W 122°20'0 0.1
2016-Dec-24 08:32N 37°44' W 122°20'0 0.0
2016-Dec-24 07:32N 37°44' W 122°20'0 0.1
2016-Dec-24 06:32N 37°44' W 122°20'0 0.0
2016-Dec-24 05:32N 37°44' W 122°20'0 0.1
2016-Dec-24 04:32N 37°44' W 122°20'0 0.0
2016-Dec-24 03:32N 37°44' W 122°20'0 0.0
2016-Dec-24 02:32N 37°44' W 122°20'0 0.0
2016-Dec-24 01:32N 37°44' W 122°20'0 0.0
2016-Dec-24 00:32N 37°44' W 122°20'0 0.0
2016-Dec-23 23:32N 37°44' W 122°20'0 0.0
2016-Dec-23 22:32N 37°44' W 122°20'0 0.2
2016-Dec-23 21:32N 37°44' W 122°20'0 0.1
2016-Dec-23 20:32N 37°44' W 122°20'0 0.0
2016-Dec-23 19:32N 37°44' W 122°20'0 0.0
2016-Dec-23 18:32N 37°44' W 122°20'0 0.0
2016-Dec-23 17:32N 37°44' W 122°20'0 0.0
2016-Dec-23 16:32N 37°44' W 122°20'0 0.0
2016-Dec-23 15:32N 37°44' W 122°20'0 0.3
2016-Dec-23 14:32N 37°44' W 122°20'0 0.1
2016-Dec-23 13:32N 37°44' W 122°20'0 0.0
2016-Dec-23 12:32N 37°44' W 122°20'0 0.0
2016-Dec-23 11:32N 37°44' W 122°20'0 0.1
2016-Dec-23 10:32N 37°44' W 122°20'0 0.1
2016-Dec-23 09:32N 37°44' W 122°20'0 0.0
2016-Dec-23 08:32N 37°44' W 122°20'0 0.0
2016-Dec-23 07:32N 37°44' W 122°20'0 0.0
2016-Dec-23 06:32N 37°44' W 122°20'0 0.0
2016-Dec-23 05:32N 37°44' W 122°20'0 0.1
2016-Dec-23 04:32N 37°44' W 122°20'0 0.0
2016-Dec-23 03:32N 37°44' W 122°20'0 0.1
2016-Dec-23 02:34N 37°44' W 122°20'6 5.7
2016-Dec-23 01:33N 37°49' W 122°24'1211.6
2016-Dec-23 00:33N 37°46' W 122°38'9 9.5
2016-Dec-22 23:33N 37°40' W 122°47'9 8.9
2016-Dec-22 22:33N 37°35' W 122°57'1313.0
2016-Dec-22 21:34N 37°26' W 123°08'1413.6
2016-Dec-22 20:33N 37°13' W 123°14'1413.5
2016-Dec-22 19:34N 37°01' W 123°22'5811.5
2016-Dec-22 14:33N 36°13' W 124°01'1111.0
2016-Dec-22 13:33N 36°03' W 124°08'11913.1
2016-Dec-22 04:29N 34°17' W 125°13'1613.5
2016-Dec-22 03:20N 34°03' W 125°06'6713.1
2016-Dec-21 22:14N 33°00' W 124°39'2613.6
2016-Dec-21 20:20N 32°36' W 124°28'1113.5
2016-Dec-21 19:33N 32°26' W 124°24'3113.6
2016-Dec-21 17:16N 32°01' W 124°02'16414.0
2016-Dec-21 05:31N 29°57' W 121°57'5814.1
2016-Dec-21 01:25N 29°13' W 121°14'  
Track history (hours):
 
Tides and Currents Weather Stations Pressure Air Temp Water Temp Dewpoint Dewpoint Depression Visibility Wind Speed Wind Dir Waves Ship Positions

Mermaid Express

Last reported at 2016-Dec-30 22:26 UTC. Time now 2017-Jan-22 20:21 UTC.
Position N 37°31' W 123°09'.
Warning: this ship's position is 22 days out of date.

Length 179 m; draft 10.6 m.

Type: Tanker. MMSI: 352866000.

Date/timePositionNaut miles runAvg speedWind from/ knotsBaromVisibWave heightAir tempDewpointWater temp
2016-Dec-30 22:26N 37°31' W 123°09'1112.6
2016-Dec-30 21:33N 37°37' W 122°57'1312.9
2016-Dec-30 20:33N 37°44' W 122°44'1110.7
2016-Dec-30 19:33N 37°48' W 122°31'7 7.4
2016-Dec-30 18:33N 37°55' W 122°27'8 8.2
2016-Dec-30 17:33N 38°02' W 122°22'5 5.0
2016-Dec-30 16:33N 38°03' W 122°16'0 0.0
2016-Dec-30 15:31N 38°03' W 122°16'0 0.0
2016-Dec-30 14:31N 38°03' W 122°16'0 0.0
2016-Dec-30 11:13N 38°03' W 122°16'0 0.0
2016-Dec-30 10:31N 38°03' W 122°16'0 0.0
2016-Dec-30 09:31N 38°03' W 122°16'0 0.0
2016-Dec-30 08:25N 38°03' W 122°16'0 0.0
2016-Dec-30 07:31N 38°03' W 122°16'0 0.0
2016-Dec-30 05:31N 38°03' W 122°16'0 0.0
2016-Dec-30 04:31N 38°03' W 122°16'0 0.0
2016-Dec-30 03:13N 38°03' W 122°16'0 0.0
2016-Dec-30 00:31N 38°03' W 122°16'0 0.0
2016-Dec-29 18:31N 38°03' W 122°16'0 0.0
2016-Dec-29 17:31N 38°03' W 122°16'0 0.0
2016-Dec-29 16:25N 38°03' W 122°16'0 0.0
2016-Dec-29 15:25N 38°03' W 122°16'0 0.0
2016-Dec-29 14:31N 38°03' W 122°16'0 0.0
2016-Dec-29 13:31N 38°03' W 122°16'0 0.0
2016-Dec-29 12:07N 38°03' W 122°16'0 0.0
2016-Dec-29 11:25N 38°03' W 122°16'0 0.0
2016-Dec-29 10:31N 38°03' W 122°16'0 0.0
2016-Dec-29 09:31N 38°03' W 122°16'0 0.0
2016-Dec-29 08:25N 38°03' W 122°16'0 0.0
2016-Dec-29 07:25N 38°03' W 122°16'0 0.0
2016-Dec-29 00:19N 38°03' W 122°16'0 0.0
2016-Dec-28 19:31N 38°03' W 122°16'0 0.0
2016-Dec-28 18:31N 38°03' W 122°16'0 0.0
2016-Dec-28 17:31N 38°03' W 122°16'0 0.0
2016-Dec-28 16:31N 38°03' W 122°16'0 0.0
2016-Dec-28 15:31N 38°03' W 122°16'0 0.0
2016-Dec-28 14:31N 38°03' W 122°16'0 0.0
2016-Dec-28 13:25N 38°03' W 122°16'0 0.0
2016-Dec-28 12:31N 38°03' W 122°16'0 0.0
2016-Dec-28 11:19N 38°03' W 122°16'0 0.0
2016-Dec-28 10:25N 38°03' W 122°16'0 0.0
2016-Dec-28 08:25N 38°03' W 122°16'0 0.0
2016-Dec-28 04:31N 38°03' W 122°16'0 0.0
2016-Dec-28 03:13N 38°03' W 122°16'0 0.0
2016-Dec-28 02:31N 38°03' W 122°16'0 0.0
2016-Dec-28 00:31N 38°03' W 122°16'0 0.0
2016-Dec-27 23:13N 38°03' W 122°16'0 0.0
2016-Dec-27 20:13N 38°03' W 122°16'0 0.0
2016-Dec-27 19:31N 38°03' W 122°16'0 0.0
2016-Dec-27 18:19N 38°03' W 122°16'0 0.0
2016-Dec-27 17:31N 38°03' W 122°16'0 0.1
2016-Dec-27 16:33N 38°03' W 122°16'9 8.7
2016-Dec-27 15:33N 37°59' W 122°25'1111.3
2016-Dec-27 14:33N 37°48' W 122°23'5 4.5
2016-Dec-27 13:32N 37°44' W 122°20'0 0.1
2016-Dec-27 12:32N 37°44' W 122°20'0 0.1
2016-Dec-27 11:32N 37°44' W 122°20'0 0.0
2016-Dec-27 10:32N 37°44' W 122°20'0 0.0
2016-Dec-27 09:32N 37°44' W 122°20'0 0.1
2016-Dec-27 08:32N 37°44' W 122°20'0 0.1
2016-Dec-27 07:32N 37°44' W 122°20'0 0.1
2016-Dec-27 06:32N 37°44' W 122°20'0 0.0
2016-Dec-27 05:32N 37°44' W 122°20'0 0.0
2016-Dec-27 04:32N 37°44' W 122°20'0 0.0
2016-Dec-27 03:32N 37°44' W 122°20'0 0.0
2016-Dec-27 02:32N 37°44' W 122°20'0 0.1
2016-Dec-27 01:32N 37°44' W 122°20'0 0.1
2016-Dec-27 00:32N 37°44' W 122°20'0 0.0
2016-Dec-26 23:32N 37°44' W 122°20'0 0.0
2016-Dec-26 22:32N 37°44' W 122°20'0 0.0
2016-Dec-26 21:32N 37°44' W 122°20'0 0.0
2016-Dec-26 20:32N 37°44' W 122°20'0 0.1
2016-Dec-26 19:32N 37°44' W 122°20'0 0.1
2016-Dec-26 18:32N 37°44' W 122°20'0 0.2
2016-Dec-26 17:32N 37°44' W 122°20'0 0.1
2016-Dec-26 16:32N 37°44' W 122°20'0 0.0
2016-Dec-26 15:32N 37°44' W 122°20'0 0.0
2016-Dec-26 14:32N 37°44' W 122°20'0 0.0
2016-Dec-26 13:32N 37°44' W 122°20'0 0.1
2016-Dec-26 12:32N 37°44' W 122°20'0 0.1
2016-Dec-26 11:32N 37°44' W 122°20'0 0.0
2016-Dec-26 10:32N 37°44' W 122°20'0 0.0
2016-Dec-26 09:32N 37°44' W 122°20'0 0.0
2016-Dec-26 08:32N 37°44' W 122°20'0 0.1
2016-Dec-26 07:32N 37°44' W 122°20'0 0.1
2016-Dec-26 06:32N 37°44' W 122°20'0 0.0
2016-Dec-26 05:32N 37°44' W 122°20'0 0.0
2016-Dec-26 04:32N 37°44' W 122°20'0 0.0
2016-Dec-26 03:32N 37°44' W 122°20'0 0.0
2016-Dec-26 02:32N 37°44' W 122°20'0 0.0
2016-Dec-26 01:32N 37°44' W 122°20'0 0.1
2016-Dec-26 00:32N 37°44' W 122°20'0 0.1
2016-Dec-25 23:32N 37°44' W 122°20'0 0.0
2016-Dec-25 22:32N 37°44' W 122°20'0 0.0
2016-Dec-25 21:32N 37°44' W 122°20'0 0.0
2016-Dec-25 20:32N 37°44' W 122°20'0 0.0
2016-Dec-25 19:32N 37°44' W 122°20'0 0.0
2016-Dec-25 18:32N 37°44' W 122°20'0 0.1
2016-Dec-25 17:32N 37°44' W 122°20'0 0.1
2016-Dec-25 16:32N 37°44' W 122°20'0 0.0
2016-Dec-25 15:32N 37°44' W 122°20'0 0.0
2016-Dec-25 14:32N 37°44' W 122°20'0 0.0
2016-Dec-25 13:32N 37°44' W 122°20'0 0.1
2016-Dec-25 12:32N 37°44' W 122°20'0 0.2
2016-Dec-25 11:32N 37°44' W 122°20'0 0.0
2016-Dec-25 10:32N 37°44' W 122°20'0 0.0
2016-Dec-25 09:32N 37°44' W 122°20'0 0.0
2016-Dec-25 08:32N 37°44' W 122°20'0 0.0
2016-Dec-25 07:32N 37°44' W 122°20'0 0.1
2016-Dec-25 06:32N 37°44' W 122°20'0 0.0
2016-Dec-25 05:32N 37°44' W 122°20'0 0.0
2016-Dec-25 04:32N 37°44' W 122°20'0 0.1
2016-Dec-25 03:32N 37°44' W 122°20'0 0.0
2016-Dec-25 02:32N 37°44' W 122°20'0 0.0
2016-Dec-25 01:32N 37°44' W 122°20'0 0.0
2016-Dec-25 00:32N 37°44' W 122°20'0 0.1
2016-Dec-24 23:32N 37°44' W 122°20'0 0.1
2016-Dec-24 22:32N 37°44' W 122°20'0 0.0
2016-Dec-24 21:32N 37°44' W 122°20'0 0.0
2016-Dec-24 20:32N 37°44' W 122°20'0 0.0
2016-Dec-24 19:32N 37°44' W 122°20'0 0.1
2016-Dec-24 18:32N 37°44' W 122°20'0 0.2
2016-Dec-24 17:32N 37°44' W 122°20'0 0.0
2016-Dec-24 16:32N 37°44' W 122°20'0 0.1
2016-Dec-24 15:32N 37°44' W 122°20'0 0.0
2016-Dec-24 14:32N 37°44' W 122°20'0 0.0
2016-Dec-24 13:32N 37°44' W 122°20'0 0.0
2016-Dec-24 12:32N 37°44' W 122°20'0 0.0
2016-Dec-24 11:32N 37°44' W 122°20'0 0.0
2016-Dec-24 10:32N 37°44' W 122°20'0 0.0
2016-Dec-24 09:32N 37°44' W 122°20'0 0.1
2016-Dec-24 08:32N 37°44' W 122°20'0 0.0
2016-Dec-24 07:32N 37°44' W 122°20'0 0.1
2016-Dec-24 06:32N 37°44' W 122°20'0 0.0
2016-Dec-24 05:32N 37°44' W 122°20'0 0.1
2016-Dec-24 04:32N 37°44' W 122°20'0 0.0
2016-Dec-24 03:32N 37°44' W 122°20'0 0.0
2016-Dec-24 02:32N 37°44' W 122°20'0 0.0
2016-Dec-24 01:32N 37°44' W 122°20'0 0.0
2016-Dec-24 00:32N 37°44' W 122°20'0 0.0
2016-Dec-23 23:32N 37°44' W 122°20'0 0.0
2016-Dec-23 22:32N 37°44' W 122°20'0 0.2
2016-Dec-23 21:32N 37°44' W 122°20'0 0.1
2016-Dec-23 20:32N 37°44' W 122°20'0 0.0
2016-Dec-23 19:32N 37°44' W 122°20'0 0.0
2016-Dec-23 18:32N 37°44' W 122°20'0 0.0
2016-Dec-23 17:32N 37°44' W 122°20'0 0.0
2016-Dec-23 16:32N 37°44' W 122°20'0 0.0
2016-Dec-23 15:32N 37°44' W 122°20'0 0.3
2016-Dec-23 14:32N 37°44' W 122°20'0 0.1
2016-Dec-23 13:32N 37°44' W 122°20'0 0.0
2016-Dec-23 12:32N 37°44' W 122°20'0 0.0
2016-Dec-23 11:32N 37°44' W 122°20'0 0.1
2016-Dec-23 10:32N 37°44' W 122°20'0 0.1
2016-Dec-23 09:32N 37°44' W 122°20'0 0.0
2016-Dec-23 08:32N 37°44' W 122°20'0 0.0
2016-Dec-23 07:32N 37°44' W 122°20'0 0.0
2016-Dec-23 06:32N 37°44' W 122°20'0 0.0
2016-Dec-23 05:32N 37°44' W 122°20'0 0.1
2016-Dec-23 04:32N 37°44' W 122°20'0 0.0
2016-Dec-23 03:32N 37°44' W 122°20'0 0.1
2016-Dec-23 02:34N 37°44' W 122°20'6 5.7
2016-Dec-23 01:33N 37°49' W 122°24'1211.6
2016-Dec-23 00:33N 37°46' W 122°38'9 9.5
2016-Dec-22 23:33N 37°40' W 122°47'9 8.9
2016-Dec-22 22:33N 37°35' W 122°57'1313.0
2016-Dec-22 21:34N 37°26' W 123°08'1413.6
2016-Dec-22 20:33N 37°13' W 123°14'1413.5
2016-Dec-22 19:34N 37°01' W 123°22'5811.5
2016-Dec-22 14:33N 36°13' W 124°01'1111.0
2016-Dec-22 13:33N 36°03' W 124°08'11913.1
2016-Dec-22 04:29N 34°17' W 125°13'1613.5
2016-Dec-22 03:20N 34°03' W 125°06'6713.1
2016-Dec-21 22:14N 33°00' W 124°39'2613.6
2016-Dec-21 20:20N 32°36' W 124°28'1113.5
2016-Dec-21 19:33N 32°26' W 124°24'3113.6
2016-Dec-21 17:16N 32°01' W 124°02'16414.0
2016-Dec-21 05:31N 29°57' W 121°57'5814.1
2016-Dec-21 01:25N 29°13' W 121°14'  

Dump ship's entire track history